KBKL

Cleveland Burke Lakefront Airport

Airport
ICAO code
KBKL
IATA Code
BKL
Summary
ICAO Region
NAM
ICAO Territory
Location

Cleveland, Ohio

Serving
Cleveland
Elevation
583 ft
Coordinates
41° 31' 21" N , 81° 40' 9" W
KCC
Airport BS
Bird Strike
Airport RE
Landing on Contaminated Runways
Metar
KBKL 251200Z 00000KT 10SM OVC016 18/15 A3007 RMK AO2 T01830150 $

Description

Cleveland Burke Lakefront Airport is a public use airport situated on the shore of Lake Erie, in the northeast part of downtown Cleveland, in Cuyahoga County, Ohio, USA.

Airport map

Aerial View

SKYbrary Partners:

Safety knowledge contributed by: